createdAt,value
2023-04-01T00:00:37.008Z,8.10
2023-04-01T00:03:05.191Z,8.10
2023-04-01T00:05:33.257Z,8.20
2023-04-01T00:08:01.658Z,8.10
2023-04-01T00:10:29.491Z,8.10
2023-04-01T00:12:57.341Z,8.10
2023-04-01T00:15:25.415Z,8.10
2023-04-01T00:17:55.256Z,8.10
2023-04-01T00:20:23.539Z,8.00
2023-04-01T00:22:51.461Z,8.10
2023-04-01T00:25:19.861Z,8.10
2023-04-01T00:27:47.675Z,8.00
2023-04-01T00:30:16.223Z,8.00
2023-04-01T00:32:44.237Z,8.00
2023-04-01T00:35:14.308Z,7.90
2023-04-01T00:37:42.139Z,8.00
2023-04-01T00:40:27.238Z,7.90
2023-04-01T00:42:55.336Z,7.90
2023-04-01T00:45:29.570Z,7.90
2023-04-01T00:47:58.285Z,7.90
2023-04-01T00:50:29.932Z,7.90
2023-04-01T00:52:58.068Z,7.90
2023-04-01T00:55:28.844Z,7.90
2023-04-01T00:57:59.004Z,7.90
2023-04-01T01:00:27.280Z,7.90
2023-04-01T01:02:55.395Z,7.90
2023-04-01T01:05:48.165Z,7.90
2023-04-01T01:08:24.277Z,7.90
2023-04-01T01:10:52.387Z,7.90
2023-04-01T01:13:29.762Z,7.90
2023-04-01T01:16:02.384Z,7.90
2023-04-01T01:18:37.831Z,7.90
2023-04-01T01:21:31.595Z,7.90
2023-04-01T01:24:24.862Z,7.90
2023-04-01T01:27:03.730Z,7.90
2023-04-01T01:29:56.078Z,7.90
2023-04-01T01:32:40.307Z,7.90
2023-04-01T01:35:24.191Z,7.80
2023-04-01T01:37:57.046Z,7.80
2023-04-01T01:40:28.343Z,7.70
2023-04-01T01:42:59.737Z,7.80
2023-04-01T01:45:29.229Z,7.80
2023-04-01T01:47:58.824Z,7.80
2023-04-01T01:50:28.864Z,7.80
2023-04-01T01:53:06.512Z,7.80
2023-04-01T01:55:36.617Z,7.80
2023-04-01T01:58:12.127Z,7.70
2023-04-01T02:00:41.351Z,7.70
2023-04-01T02:03:09.694Z,7.70
2023-04-01T02:05:39.216Z,7.80
2023-04-01T02:08:12.974Z,7.70
2023-04-01T02:10:45.382Z,7.80
2023-04-01T02:13:20.754Z,7.70
2023-04-01T02:15:51.645Z,7.70
2023-04-01T02:18:21.772Z,7.70
2023-04-01T02:20:51.878Z,7.70
2023-04-01T02:23:20.225Z,7.70
2023-04-01T02:25:49.620Z,7.70
2023-04-01T02:28:21.521Z,7.70
2023-04-01T02:30:51.751Z,7.70
2023-04-01T02:33:21.096Z,7.70
2023-04-01T02:35:50.392Z,7.70
2023-04-01T02:38:18.365Z,7.70
2023-04-01T02:40:48.488Z,7.70
2023-04-01T02:43:17.105Z,7.70
2023-04-01T02:45:45.418Z,7.70
2023-04-01T02:48:13.850Z,7.70
2023-04-01T02:50:41.754Z,7.70
2023-04-01T02:53:11.027Z,7.60
2023-04-01T02:55:38.841Z,7.60
2023-04-01T02:58:07.077Z,7.60
2023-04-01T03:00:34.961Z,7.60
2023-04-01T03:03:03.697Z,7.60
2023-04-01T03:05:32.018Z,7.60
2023-04-01T03:08:00.171Z,7.60
2023-04-01T03:10:29.302Z,7.60
2023-04-01T03:12:57.031Z,7.60
2023-04-01T03:15:24.833Z,7.60
2023-04-01T03:17:53.108Z,7.60
2023-04-01T03:20:21.248Z,7.60
2023-04-01T03:22:49.176Z,7.60
2023-04-01T03:25:16.976Z,7.60
2023-04-01T03:27:46.246Z,7.50
2023-04-01T03:30:14.329Z,7.50
2023-04-01T03:32:42.173Z,7.50
2023-04-01T03:35:11.576Z,7.50
2023-04-01T03:37:39.639Z,7.40
2023-04-01T03:40:08.459Z,7.50
2023-04-01T03:42:36.317Z,7.50
2023-04-01T03:45:06.999Z,7.40
2023-04-01T03:47:34.904Z,7.40
2023-04-01T03:50:02.790Z,7.50
2023-04-01T03:52:30.728Z,7.40
2023-04-01T03:54:58.676Z,7.40
2023-04-01T03:57:27.294Z,7.40
2023-04-01T03:59:58.338Z,7.30
2023-04-01T04:02:27.573Z,7.50
2023-04-01T04:04:55.450Z,7.40
2023-04-01T04:07:23.260Z,7.40
2023-04-01T04:09:51.087Z,7.40
2023-04-01T04:12:18.903Z,7.40
2023-04-01T04:14:46.678Z,7.40
2023-04-01T04:17:17.131Z,7.40
2023-04-01T04:19:46.520Z,7.40
2023-04-01T04:22:14.410Z,7.40
2023-04-01T04:24:42.187Z,7.40
2023-04-01T04:27:10.020Z,7.40
2023-04-01T04:29:38.892Z,7.40
2023-04-01T04:32:06.808Z,7.40
2023-04-01T04:34:34.789Z,7.30
2023-04-01T04:37:04.407Z,7.40
2023-04-01T04:39:32.381Z,7.40
2023-04-01T04:42:00.228Z,7.40
2023-04-01T04:44:28.269Z,7.40
2023-04-01T04:46:58.395Z,7.40
2023-04-01T04:49:27.453Z,7.40
2023-04-01T04:51:55.326Z,7.40
2023-04-01T04:54:24.437Z,7.40
2023-04-01T04:56:53.931Z,7.40
2023-04-01T04:59:22.110Z,7.40
2023-04-01T05:01:49.933Z,7.40
2023-04-01T05:04:17.889Z,7.40
2023-04-01T05:06:45.997Z,7.40
2023-04-01T05:09:14.155Z,7.40
2023-04-01T05:11:43.320Z,7.40
2023-04-01T05:14:15.567Z,7.40
2023-04-01T05:16:43.594Z,7.40
2023-04-01T05:19:11.461Z,7.40
2023-04-01T05:21:39.281Z,7.40
2023-04-01T05:24:11.169Z,7.40
2023-04-01T05:26:39.288Z,7.40
2023-04-01T05:29:08.504Z,7.40
2023-04-01T05:31:36.324Z,7.40
2023-04-01T05:34:04.208Z,7.40
2023-04-01T05:36:32.170Z,7.50
2023-04-01T05:38:59.904Z,7.40
2023-04-01T05:41:27.757Z,7.50
2023-04-01T05:43:55.859Z,7.50
2023-04-01T05:46:25.089Z,7.50
2023-04-01T05:48:52.945Z,7.50
2023-04-01T05:51:20.789Z,8.10
2023-04-01T05:53:48.634Z,8.50
2023-04-01T05:56:16.636Z,8.20
2023-04-01T05:58:44.407Z,7.80
2023-04-01T06:01:16.160Z,7.80
2023-04-01T06:03:45.990Z,7.80
2023-04-01T06:06:16.956Z,8.00
2023-04-01T06:08:45.834Z,8.10
2023-04-01T06:11:24.621Z,8.30
2023-04-01T06:14:08.240Z,8.40
2023-04-01T06:16:48.384Z,8.40
2023-04-01T06:19:31.606Z,8.50
2023-04-01T06:22:26.040Z,8.80
2023-04-01T06:25:11.661Z,8.80
2023-04-01T06:27:54.161Z,8.60
2023-04-01T06:30:36.819Z,8.60
2023-04-01T06:33:20.140Z,9.50
2023-04-01T06:36:12.437Z,9.00
2023-04-01T06:38:59.148Z,9.30
2023-04-01T06:41:39.189Z,9.10
2023-04-01T06:44:16.903Z,8.90
2023-04-01T06:46:49.226Z,9.60
2023-04-01T06:49:35.430Z,8.90
2023-04-01T06:52:16.949Z,10.10
2023-04-01T06:54:50.277Z,10.90
2023-04-01T06:57:26.074Z,10.70
2023-04-01T06:59:56.375Z,9.90
2023-04-01T07:02:34.445Z,9.10
2023-04-01T07:05:03.900Z,8.90
2023-04-01T07:07:37.541Z,9.40
2023-04-01T07:10:12.521Z,9.40
2023-04-01T07:12:48.183Z,10.20
2023-04-01T07:15:22.193Z,8.90
2023-04-01T07:17:56.345Z,9.00
2023-04-01T07:20:28.260Z,8.90
2023-04-01T07:23:00.763Z,9.00
2023-04-01T07:25:33.409Z,9.00
2023-04-01T07:28:04.663Z,8.90
2023-04-01T07:30:42.239Z,9.10
2023-04-01T07:33:16.675Z,9.30
2023-04-01T07:35:49.664Z,10.10
2023-04-01T07:38:28.730Z,9.60
2023-04-01T07:41:08.406Z,9.40
2023-04-01T07:43:54.072Z,9.20
2023-04-01T07:46:40.338Z,9.20
2023-04-01T07:49:14.859Z,9.50
2023-04-01T07:51:50.118Z,9.20
2023-04-01T07:54:24.497Z,9.20
2023-04-01T07:56:57.595Z,9.10
2023-04-01T07:59:36.132Z,9.10
2023-04-01T08:02:12.515Z,9.00
2023-04-01T08:04:53.841Z,9.10
2023-04-01T08:07:26.956Z,9.20
2023-04-01T08:10:06.751Z,9.20
2023-04-01T08:12:48.030Z,9.10
2023-04-01T08:15:23.280Z,9.20
2023-04-01T08:18:05.421Z,9.20
2023-04-01T08:20:39.528Z,9.20
2023-04-01T08:23:13.841Z,9.40
2023-04-01T08:25:48.952Z,9.60
2023-04-01T08:28:22.785Z,9.60
2023-04-01T08:30:55.169Z,9.70
2023-04-01T08:33:27.521Z,9.70
2023-04-01T08:36:01.156Z,9.60
2023-04-01T08:38:33.320Z,10.30
2023-04-01T08:41:09.160Z,10.00
2023-04-01T08:44:04.206Z,10.00
2023-04-01T08:47:03.332Z,10.40
2023-04-01T08:49:56.575Z,9.90
2023-04-01T08:52:35.335Z,10.10
2023-04-01T08:55:21.122Z,10.00
2023-04-01T08:58:01.090Z,10.40
2023-04-01T09:00:34.154Z,10.10
2023-04-01T09:03:35.380Z,10.70
2023-04-01T09:06:30.799Z,10.40
2023-04-01T09:09:33.946Z,10.40
2023-04-01T09:12:19.553Z,11.20
2023-04-01T09:15:19.730Z,11.00
2023-04-01T09:18:05.109Z,11.20
2023-04-01T09:21:01.768Z,10.90
2023-04-01T09:23:55.216Z,10.50
2023-04-01T09:26:50.915Z,10.30
2023-04-01T09:29:35.083Z,10.20
2023-04-01T09:32:26.134Z,10.40
2023-04-01T09:35:03.080Z,10.50
2023-04-01T09:37:38.045Z,10.60
2023-04-01T09:40:19.042Z,10.50
2023-04-01T09:42:59.020Z,10.60
2023-04-01T09:45:49.321Z,10.70
2023-04-01T09:48:35.972Z,10.90
2023-04-01T09:51:13.769Z,11.10
2023-04-01T09:53:58.997Z,11.00
2023-04-01T09:57:03.331Z,10.90
2023-04-01T09:59:49.498Z,10.80
2023-04-01T10:02:53.275Z,10.80
2023-04-01T10:05:51.676Z,10.80
2023-04-01T10:09:08.489Z,10.70
2023-04-01T10:12:19.831Z,10.70
2023-04-01T10:15:25.057Z,10.70
2023-04-01T10:18:26.252Z,10.70
2023-04-01T10:21:19.671Z,10.90
2023-04-01T10:24:27.061Z,11.30
2023-04-01T10:27:13.564Z,11.20
2023-04-01T10:30:08.371Z,11.10
2023-04-01T10:33:15.943Z,11.20
2023-04-01T10:36:17.137Z,11.20
2023-04-01T10:39:24.296Z,11.10
2023-04-01T10:42:27.275Z,11.00
2023-04-01T10:45:24.740Z,11.00
2023-04-01T10:48:14.947Z,10.80
2023-04-01T10:51:22.189Z,10.70
2023-04-01T10:54:16.601Z,10.60
2023-04-01T10:56:58.011Z,10.60
2023-04-01T10:59:53.979Z,10.50
2023-04-01T11:02:55.042Z,10.50
2023-04-01T11:06:00.531Z,10.50
2023-04-01T11:09:14.257Z,10.40
2023-04-01T11:12:27.067Z,10.50
2023-04-01T11:15:54.263Z,10.60
2023-04-01T11:19:14.957Z,10.80
2023-04-01T11:22:01.489Z,10.70
2023-04-01T11:24:40.986Z,10.80
2023-04-01T11:27:27.242Z,10.90
2023-04-01T11:30:17.972Z,10.90
2023-04-01T11:32:59.369Z,10.90
2023-04-01T11:35:53.419Z,10.80
2023-04-01T11:38:51.925Z,10.60
2023-04-01T11:41:32.430Z,10.50
2023-04-01T11:44:19.943Z,10.40
2023-04-01T11:47:21.096Z,10.40
2023-04-01T11:50:00.973Z,10.40
2023-04-01T11:52:49.952Z,10.30
2023-04-01T11:55:27.264Z,10.20
2023-04-01T11:58:25.863Z,10.10
2023-04-01T12:01:09.570Z,10.10
2023-04-01T12:04:13.243Z,10.00
2023-04-01T12:06:45.877Z,10.10
2023-04-01T12:09:24.843Z,10.10
2023-04-01T12:12:03.172Z,10.00
2023-04-01T12:14:40.644Z,10.10
2023-04-01T12:17:17.898Z,10.10
2023-04-01T12:19:54.675Z,10.00
2023-04-01T12:22:36.558Z,9.90
2023-04-01T12:25:23.639Z,9.90
2023-04-01T12:28:08.294Z,9.90
2023-04-01T12:30:49.537Z,9.90
2023-04-01T12:33:54.491Z,9.90
2023-04-01T12:36:37.065Z,9.80
2023-04-01T12:39:32.449Z,9.90
2023-04-01T12:42:10.004Z,9.90
2023-04-01T12:44:53.419Z,9.80
2023-04-01T12:47:39.332Z,9.80
2023-04-01T12:50:25.513Z,9.80
2023-04-01T12:53:09.162Z,9.80
2023-04-01T12:55:45.339Z,9.80
2023-04-01T12:58:52.738Z,9.70
2023-04-01T13:01:57.172Z,9.70
2023-04-01T13:05:22.249Z,9.70
2023-04-01T13:08:10.404Z,9.70
2023-04-01T13:10:49.326Z,9.70
2023-04-01T13:13:40.888Z,9.70
2023-04-01T13:16:13.862Z,9.70
2023-04-01T13:18:54.666Z,9.70
2023-04-01T13:21:35.413Z,9.60
2023-04-01T13:24:12.923Z,9.60
2023-04-01T13:26:55.474Z,9.60
2023-04-01T13:29:27.685Z,9.60
2023-04-01T13:32:22.143Z,9.50
2023-04-01T13:35:06.830Z,9.60
2023-04-01T13:37:51.198Z,9.60
2023-04-01T13:40:31.008Z,9.60
2023-04-01T13:43:03.579Z,9.60
2023-04-01T13:45:41.143Z,9.60
2023-04-01T13:48:33.784Z,9.60
2023-04-01T13:51:35.335Z,9.60
2023-04-01T13:54:29.989Z,9.60
2023-04-01T13:57:16.457Z,9.60
2023-04-01T14:00:05.325Z,9.70
2023-04-01T14:02:55.822Z,9.70
2023-04-01T14:05:43.111Z,9.60
2023-04-01T14:08:22.212Z,9.60
2023-04-01T14:11:01.865Z,9.60
2023-04-01T14:13:40.973Z,9.70
2023-04-01T14:16:27.098Z,9.70
2023-04-01T14:19:13.889Z,9.70
2023-04-01T14:21:48.110Z,9.70
2023-04-01T14:24:31.196Z,9.70
2023-04-01T14:27:35.244Z,9.70
2023-04-01T14:30:29.281Z,9.60
2023-04-01T14:33:06.247Z,9.60
2023-04-01T14:35:39.808Z,9.70
2023-04-01T14:38:28.783Z,9.60
2023-04-01T14:40:59.085Z,9.80
2023-04-01T14:44:05.352Z,9.70
2023-04-01T14:47:10.953Z,9.80
2023-04-01T14:49:41.320Z,9.80
2023-04-01T14:52:17.572Z,9.80
2023-04-01T14:54:48.530Z,9.80
2023-04-01T14:57:24.559Z,9.70
2023-04-01T14:59:55.990Z,9.70
2023-04-01T15:02:49.045Z,9.80
2023-04-01T15:05:26.009Z,9.70
2023-04-01T15:08:12.983Z,9.70
2023-04-01T15:10:53.686Z,9.70
2023-04-01T15:13:33.901Z,9.70
2023-04-01T15:16:13.586Z,9.70
2023-04-01T15:18:53.809Z,9.60
2023-04-01T15:21:34.782Z,9.60
2023-04-01T15:24:09.316Z,9.60
2023-04-01T15:27:04.271Z,9.60
2023-04-01T15:29:53.524Z,9.60
2023-04-01T15:32:28.654Z,9.60
2023-04-01T15:35:03.517Z,9.60
2023-04-01T15:37:40.207Z,9.60
2023-04-01T15:40:22.218Z,9.50
2023-04-01T15:42:59.545Z,9.50
2023-04-01T15:45:38.930Z,9.60
2023-04-01T15:48:27.304Z,9.60
2023-04-01T15:51:11.478Z,9.50
2023-04-01T15:54:23.289Z,9.50
2023-04-01T15:57:01.998Z,9.50
2023-04-01T15:59:54.043Z,9.50
2023-04-01T16:02:30.054Z,9.50
2023-04-01T16:05:01.956Z,9.50
2023-04-01T16:07:50.865Z,9.50
2023-04-01T16:10:29.489Z,9.60
2023-04-01T16:13:14.245Z,9.60
2023-04-01T16:15:52.608Z,9.50
2023-04-01T16:18:42.741Z,9.50
2023-04-01T16:21:15.459Z,9.60
2023-04-01T16:23:52.342Z,9.60
2023-04-01T16:26:27.444Z,9.50
2023-04-01T16:28:59.362Z,9.50
2023-04-01T16:31:36.609Z,9.40
2023-04-01T16:34:11.224Z,9.40
2023-04-01T16:36:45.637Z,9.40
2023-04-01T16:39:31.721Z,9.40
2023-04-01T16:42:18.426Z,9.40
2023-04-01T16:44:52.551Z,9.40
2023-04-01T16:47:24.116Z,9.30
2023-04-01T16:49:55.752Z,9.30
2023-04-01T16:52:42.395Z,9.30
2023-04-01T16:55:18.564Z,9.30
2023-04-01T16:57:52.383Z,9.30
2023-04-01T17:00:27.319Z,9.30
2023-04-01T17:03:06.358Z,9.30
2023-04-01T17:05:45.673Z,9.30
2023-04-01T17:08:24.464Z,9.20
2023-04-01T17:10:59.051Z,9.20
2023-04-01T17:13:36.894Z,9.20
2023-04-01T17:16:26.268Z,9.20
2023-04-01T17:19:05.183Z,9.20
2023-04-01T17:22:02.134Z,9.10
2023-04-01T17:24:50.960Z,9.10
2023-04-01T17:27:33.869Z,9.10
2023-04-01T17:30:19.469Z,9.10
2023-04-01T17:33:04.169Z,9.10
2023-04-01T17:35:37.288Z,9.10
2023-04-01T17:38:15.924Z,9.10
2023-04-01T17:41:05.830Z,9.10
2023-04-01T17:43:47.707Z,9.00
2023-04-01T17:46:33.487Z,9.00
2023-04-01T17:49:09.618Z,9.00
2023-04-01T17:51:45.572Z,9.00
2023-04-01T17:54:26.095Z,9.00
2023-04-01T17:57:09.509Z,9.00
2023-04-01T17:59:41.107Z,9.00
2023-04-01T18:02:23.832Z,9.00
2023-04-01T18:05:17.143Z,9.00
2023-04-01T18:08:12.596Z,8.90
2023-04-01T18:10:48.524Z,8.90
2023-04-01T18:13:44.441Z,8.90
2023-04-01T18:16:24.380Z,8.90
2023-04-01T18:19:01.460Z,8.90
2023-04-01T18:21:38.324Z,8.90
2023-04-01T18:24:17.426Z,8.90
2023-04-01T18:26:48.672Z,8.90
2023-04-01T18:29:32.766Z,8.90
2023-04-01T18:32:17.471Z,8.80
2023-04-01T18:34:56.943Z,8.90
2023-04-01T18:37:29.209Z,8.80
2023-04-01T18:40:03.883Z,8.80
2023-04-01T18:42:44.571Z,9.10
2023-04-01T18:45:20.980Z,8.80
2023-04-01T18:47:58.202Z,8.80
2023-04-01T18:50:31.575Z,8.80
2023-04-01T18:53:11.015Z,8.80
2023-04-01T18:55:44.058Z,8.70
2023-04-01T18:58:24.850Z,8.70
2023-04-01T19:01:07.811Z,8.70
2023-04-01T19:03:47.167Z,8.70
2023-04-01T19:06:22.072Z,8.70
2023-04-01T19:08:49.851Z,8.70
2023-04-01T19:11:28.220Z,8.70
2023-04-01T19:14:05.308Z,8.70
2023-04-01T19:16:49.919Z,8.70
2023-04-01T19:19:39.832Z,8.60
2023-04-01T19:22:22.638Z,8.60
2023-04-01T19:25:19.616Z,8.60
2023-04-01T19:27:51.623Z,8.60
2023-04-01T19:30:37.384Z,8.60
2023-04-01T19:33:19.404Z,8.60
2023-04-01T19:35:55.581Z,8.60
2023-04-01T19:38:35.817Z,8.50
2023-04-01T19:41:14.020Z,8.50
2023-04-01T19:43:55.959Z,8.50
2023-04-01T19:46:32.179Z,8.50
2023-04-01T19:49:23.784Z,8.50
2023-04-01T19:52:01.647Z,8.50
2023-04-01T19:54:39.367Z,8.50
2023-04-01T19:57:17.551Z,8.40
2023-04-01T19:59:52.880Z,8.40
2023-04-01T20:02:39.797Z,8.40
2023-04-01T20:05:31.198Z,8.40
2023-04-01T20:08:09.448Z,8.40
2023-04-01T20:10:48.155Z,8.30
2023-04-01T20:13:25.962Z,8.30
2023-04-01T20:16:03.551Z,8.30
2023-04-01T20:18:40.440Z,8.30
2023-04-01T20:21:20.177Z,8.30
2023-04-01T20:23:56.232Z,8.30
2023-04-01T20:26:28.253Z,8.30
2023-04-01T20:29:22.747Z,8.30
2023-04-01T20:32:01.016Z,8.30
2023-04-01T20:35:01.469Z,8.30
2023-04-01T20:37:39.613Z,8.30
2023-04-01T20:40:31.306Z,8.30
2023-04-01T20:43:25.055Z,8.30
2023-04-01T20:45:59.802Z,8.30
2023-04-01T20:49:00.568Z,8.30
2023-04-01T20:51:31.885Z,8.20
2023-04-01T20:54:13.592Z,8.20
2023-04-01T20:56:57.603Z,8.20
2023-04-01T20:59:35.773Z,8.20
2023-04-01T21:02:18.852Z,8.20
2023-04-01T21:05:06.490Z,8.20
2023-04-01T21:07:39.302Z,8.20
2023-04-01T21:10:21.570Z,8.20
2023-04-01T21:12:58.479Z,8.20
2023-04-01T21:15:41.851Z,8.20
2023-04-01T21:18:26.154Z,8.20
2023-04-01T21:21:28.569Z,8.20
2023-04-01T21:24:11.399Z,8.10
2023-04-01T21:26:49.591Z,8.10
2023-04-01T21:29:39.450Z,8.10
2023-04-01T21:32:20.886Z,8.10
2023-04-01T21:34:54.304Z,8.10
2023-04-01T21:37:38.752Z,8.10
2023-04-01T21:40:41.280Z,8.10
2023-04-01T21:43:22.538Z,8.10
2023-04-01T21:46:26.920Z,8.10
2023-04-01T21:49:10.439Z,8.10
2023-04-01T21:52:02.081Z,8.10
2023-04-01T21:55:08.413Z,8.10
2023-04-01T21:58:08.717Z,8.10
2023-04-01T22:00:40.673Z,8.00
2023-04-01T22:03:49.718Z,8.10
2023-04-01T22:06:27.345Z,8.00
2023-04-01T22:09:07.359Z,8.00
2023-04-01T22:11:50.431Z,8.00
2023-04-01T22:14:27.298Z,8.00
2023-04-01T22:17:04.593Z,8.00
2023-04-01T22:19:42.565Z,8.00
2023-04-01T22:22:17.370Z,8.00
2023-04-01T22:24:55.488Z,8.00
2023-04-01T22:27:28.670Z,8.00
2023-04-01T22:30:06.178Z,8.00
2023-04-01T22:32:42.654Z,8.00
2023-04-01T22:35:19.998Z,8.00
2023-04-01T22:37:58.151Z,8.00
2023-04-01T22:40:29.261Z,8.00
2023-04-01T22:43:03.309Z,8.00
2023-04-01T22:46:04.100Z,8.00
2023-04-01T22:48:39.630Z,7.90
2023-04-01T22:51:17.681Z,7.90
2023-04-01T22:54:01.375Z,7.90
2023-04-01T22:56:35.051Z,8.00
2023-04-01T23:01:45.914Z,7.90
2023-04-01T23:04:20.006Z,7.90
2023-04-01T23:06:54.826Z,7.90
2023-04-01T23:09:25.390Z,7.90
2023-04-01T23:11:57.220Z,7.90
2023-04-01T23:14:47.447Z,7.80
2023-04-01T23:17:28.741Z,7.90
2023-04-01T23:20:06.706Z,7.90
2023-04-01T23:22:40.378Z,7.90
2023-04-01T23:25:25.461Z,7.80
2023-04-01T23:27:58.215Z,7.80
2023-04-01T23:30:51.323Z,7.80
2023-04-01T23:33:25.540Z,7.80
2023-04-01T23:35:55.694Z,7.80
2023-04-01T23:38:27.560Z,7.80
2023-04-01T23:40:57.155Z,7.80
2023-04-01T23:43:27.888Z,7.70
2023-04-01T23:45:57.026Z,7.80
2023-04-01T23:48:32.042Z,7.80
2023-04-01T23:51:00.579Z,7.80
2023-04-01T23:53:34.338Z,7.80
2023-04-01T23:56:04.156Z,7.80
2023-04-01T23:58:45.153Z,7.80
